LGAVLGKF

Guest
Details From LGAV - Athens Intl Airport Elefterios Venizel
To LGKF - Kefallinia
Flight Number -
Tags generated
Created
Modified
Stats Distance 163 nm / 303 km
Max Altitude 21,200 ft / 6,462 m
Waypoints 3
Social Downloads 0
Likes 0
Share VATSIM

Download

Looking for another format? Having issues loading an existing format? Contact us
Advertisement - Login to hide

Notes

Basic altitude profile: - Ascent Rate: 2500ft/min - Ascent Speed: 250kts - Cruise Altitude: 35000ft - Cruise Speed: 420kts - Descent Rate: 1500ft/min - Descent Speed: 250kts Options: - Use NATs: no - Use PACOTS: no - Use low airways: yes - Use high airways: yes

Route

LGAV PIKAD LGKF

ID Type Via Altitude (ft/m) Position (lat/lon) Dist (leg/tot) Name
O LGAV APT - 0 / 0 37.93636 / 23.94447 - / 0 nm Athens Intl Airport Elefterios Venizel
PIKAD FIX - 21,200 / 6,462 38.06139 / 22.69778 59 / 59 nm
O LGKF APT - 0 / 0 38.12007 / 20.50048 103 / 163 nm Kefallinia

Altitude Profile

Advertisement - Login to hide

Weather


0- 5 10 15 20 25 30 35+ Temperature / °C

Clouds and Precipitation
Forecast for 2018-08-17 12:00 UTC. Updated 3 hours ago

Ground ~20,000 ft ~40,000 ft Winds

LGAV

Details ICAO LGAV (ATH)
Name Athens Eleftherios Venizelos
Region Greece
Timezone Europe/Athens (UTC+3.0)
Stats Elevation 308 ft / 94 m (AMSL)
Location 37.936700° 23.944500°
Runways 2
Magnetic Variation 4.550° E

METAR

LGAV 171220Z 07009KT 9999 FEW025 BKN060 30/17 Q1011 NOSIG

Decode

TAF

TAF TAF LGAV 171100Z 1712/1812 07012KT 9999 FEW030 BKN060 BECMG 1713/1715 21010KT PROB30 TEMPO 1712/1716 5000 SHRA FEW018CB BKN060 BECMG 1801/1803 35010KT TEMPO 1809/1812 02012G22KT

Decode

Departure Runways

ID Width Length Bearing (true/mag) Surface Threshold Overrun Markings Lighting
03L 148 ft / 45 m 12,479 ft / 3,804 m 36.85° / 32.30° ASPHALT 984 ft / 300 m 397 ft / 121 m PREC-APP CENTERLINE EDGE THRESHOLD ALSF-II TDZ
03R 148 ft / 45 m 13,136 ft / 4,004 m 36.89° / 32.34° ASPHALT 984 ft / 300 m 387 ft / 118 m PREC-APP CENTERLINE EDGE THRESHOLD ALSF-II TDZ
21L 148 ft / 45 m 13,136 ft / 4,004 m 216.91° / 212.36° ASPHALT 984 ft / 300 m 400 ft / 122 m PREC-APP CENTERLINE EDGE THRESHOLD ALSF-II TDZ
21R 148 ft / 45 m 12,479 ft / 3,804 m 216.87° / 212.32° ASPHALT 984 ft / 300 m 394 ft / 120 m PREC-APP CENTERLINE EDGE THRESHOLD ALSF-II TDZ

LGKF

Details ICAO LGKF (EFL)
Name Kefallinia
Region Greece
Timezone Europe/Athens (UTC+3.0)
Stats Elevation 59 ft / 18 m (AMSL)
Location 38.120200° 20.500400°
Runways 1
Magnetic Variation 4.118° E

METAR

LGKF 171150Z 26006KT 9999 FEW018 29/20 Q1012

Decode

TAF

Not found

Destination Runways

ID Width Length Bearing (true/mag) Surface Threshold Overrun Markings Lighting
14 148 ft / 45 m 8,039 ft / 2,450 m 146.43° / 142.31° CONCRETE 89 ft / 27 m 0 ft / 0 m PREC-APP CENTERLINE EDGE THRESHOLD MALSF
32 148 ft / 45 m 8,039 ft / 2,450 m 326.44° / 322.32° CONCRETE 853 ft / 260 m 0 ft / 0 m PREC-APP CENTERLINE EDGE THRESHOLD MALSF

Popular Alternatives